sensor_id;sensor_type;location;lat;lon;timestamp;P1;durP1;ratioP1;P2;durP2;ratioP2
22531;SDS011;11432;46.924;7.114;2023-03-23T00:01:19;1.73;;;1.20;;
22531;SDS011;11432;46.924;7.114;2023-03-23T00:03:47;2.55;;;1.40;;
22531;SDS011;11432;46.924;7.114;2023-03-23T00:06:15;2.25;;;1.30;;
22531;SDS011;11432;46.924;7.114;2023-03-23T00:08:46;8.00;;;1.52;;
22531;SDS011;11432;46.924;7.114;2023-03-23T00:13:41;3.40;;;1.48;;
22531;SDS011;11432;46.924;7.114;2023-03-23T00:16:09;4.43;;;1.45;;
22531;SDS011;11432;46.924;7.114;2023-03-23T00:18:45;3.38;;;1.30;;
22531;SDS011;11432;46.924;7.114;2023-03-23T00:21:12;2.30;;;1.50;;
22531;SDS011;11432;46.924;7.114;2023-03-23T00:23:38;2.95;;;1.50;;
22531;SDS011;11432;46.924;7.114;2023-03-23T00:26:04;2.88;;;1.35;;
22531;SDS011;11432;46.924;7.114;2023-03-23T00:28:30;2.28;;;1.20;;
22531;SDS011;11432;46.924;7.114;2023-03-23T00:30:59;4.50;;;1.10;;
22531;SDS011;11432;46.924;7.114;2023-03-23T00:33:28;3.17;;;1.50;;
22531;SDS011;11432;46.924;7.114;2023-03-23T00:35:58;2.63;;;1.33;;
22531;SDS011;11432;46.924;7.114;2023-03-23T00:38:24;2.60;;;1.45;;
22531;SDS011;11432;46.924;7.114;2023-03-23T00:40:50;1.98;;;1.10;;
22531;SDS011;11432;46.924;7.114;2023-03-23T00:43:17;1.88;;;1.23;;
22531;SDS011;11432;46.924;7.114;2023-03-23T00:45:44;2.58;;;1.55;;
22531;SDS011;11432;46.924;7.114;2023-03-23T00:48:17;1.60;;;1.10;;
22531;SDS011;11432;46.924;7.114;2023-03-23T00:50:44;3.72;;;1.40;;
22531;SDS011;11432;46.924;7.114;2023-03-23T00:53:09;3.40;;;1.35;;
22531;SDS011;11432;46.924;7.114;2023-03-23T00:55:35;1.42;;;1.08;;
22531;SDS011;11432;46.924;7.114;2023-03-23T00:58:00;2.10;;;1.10;;
22531;SDS011;11432;46.924;7.114;2023-03-23T01:00:26;2.50;;;1.10;;
22531;SDS011;11432;46.924;7.114;2023-03-23T01:02:52;2.22;;;1.00;;
22531;SDS011;11432;46.924;7.114;2023-03-23T01:05:18;2.50;;;0.90;;
22531;SDS011;11432;46.924;7.114;2023-03-23T01:07:45;1.75;;;1.15;;
22531;SDS011;11432;46.924;7.114;2023-03-23T01:10:11;2.88;;;1.15;;
22531;SDS011;11432;46.924;7.114;2023-03-23T01:15:07;2.03;;;1.00;;
22531;SDS011;11432;46.924;7.114;2023-03-23T01:17:33;3.03;;;1.10;;
22531;SDS011;11432;46.924;7.114;2023-03-23T01:19:59;2.25;;;1.20;;
22531;SDS011;11432;46.924;7.114;2023-03-23T01:22:25;1.77;;;0.85;;
22531;SDS011;11432;46.924;7.114;2023-03-23T01:24:51;2.63;;;1.50;;
22531;SDS011;11432;46.924;7.114;2023-03-23T01:27:16;2.83;;;1.23;;
22531;SDS011;11432;46.924;7.114;2023-03-23T01:29:42;3.05;;;1.02;;
22531;SDS011;11432;46.924;7.114;2023-03-23T01:32:07;1.52;;;1.05;;
22531;SDS011;11432;46.924;7.114;2023-03-23T01:34:33;2.10;;;1.23;;
22531;SDS011;11432;46.924;7.114;2023-03-23T01:36:58;1.40;;;1.00;;
22531;SDS011;11432;46.924;7.114;2023-03-23T01:39:24;2.08;;;1.13;;
22531;SDS011;11432;46.924;7.114;2023-03-23T01:41:50;2.20;;;1.17;;
22531;SDS011;11432;46.924;7.114;2023-03-23T01:46:41;3.70;;;1.10;;
22531;SDS011;11432;46.924;7.114;2023-03-23T01:49:09;1.50;;;1.08;;
22531;SDS011;11432;46.924;7.114;2023-03-23T01:51:59;3.63;;;1.20;;
22531;SDS011;11432;46.924;7.114;2023-03-23T01:54:27;5.30;;;1.33;;
22531;SDS011;11432;46.924;7.114;2023-03-23T01:57:02;2.72;;;1.40;;
22531;SDS011;11432;46.924;7.114;2023-03-23T01:59:32;2.22;;;1.25;;
22531;SDS011;11432;46.924;7.114;2023-03-23T02:01:59;1.80;;;1.10;;
22531;SDS011;11432;46.924;7.114;2023-03-23T02:04:27;1.83;;;1.40;;
22531;SDS011;11432;46.924;7.114;2023-03-23T02:06:55;5.05;;;1.42;;
22531;SDS011;11432;46.924;7.114;2023-03-23T02:09:24;2.50;;;1.40;;
22531;SDS011;11432;46.924;7.114;2023-03-23T02:11:50;2.58;;;1.30;;
22531;SDS011;11432;46.924;7.114;2023-03-23T02:14:18;1.63;;;1.02;;
22531;SDS011;11432;46.924;7.114;2023-03-23T02:35:17;3.17;;;1.45;;
22531;SDS011;11432;46.924;7.114;2023-03-23T02:37:49;6.57;;;1.50;;
22531;SDS011;11432;46.924;7.114;2023-03-23T02:40:24;2.60;;;1.30;;
22531;SDS011;11432;46.924;7.114;2023-03-23T02:42:55;2.40;;;1.42;;
22531;SDS011;11432;46.924;7.114;2023-03-23T02:45:24;3.22;;;1.10;;
22531;SDS011;11432;46.924;7.114;2023-03-23T02:47:54;2.15;;;1.10;;
22531;SDS011;11432;46.924;7.114;2023-03-23T02:50:22;2.13;;;1.10;;
22531;SDS011;11432;46.924;7.114;2023-03-23T02:52:50;2.47;;;1.05;;
22531;SDS011;11432;46.924;7.114;2023-03-23T02:55:19;2.75;;;1.20;;
22531;SDS011;11432;46.924;7.114;2023-03-23T02:57:49;7.93;;;1.42;;
22531;SDS011;11432;46.924;7.114;2023-03-23T03:00:17;3.35;;;1.20;;
22531;SDS011;11432;46.924;7.114;2023-03-23T03:02:44;2.63;;;1.48;;
22531;SDS011;11432;46.924;7.114;2023-03-23T03:08:24;1.92;;;1.27;;
22531;SDS011;11432;46.924;7.114;2023-03-23T03:11:08;2.30;;;1.23;;
22531;SDS011;11432;46.924;7.114;2023-03-23T03:21:13;5.55;;;1.30;;
22531;SDS011;11432;46.924;7.114;2023-03-23T03:23:43;5.43;;;1.30;;
22531;SDS011;11432;46.924;7.114;2023-03-23T03:26:11;4.40;;;1.33;;
22531;SDS011;11432;46.924;7.114;2023-03-23T03:28:42;1.73;;;1.05;;
22531;SDS011;11432;46.924;7.114;2023-03-23T03:31:12;2.65;;;1.13;;
22531;SDS011;11432;46.924;7.114;2023-03-23T03:33:43;4.07;;;1.50;;
22531;SDS011;11432;46.924;7.114;2023-03-23T03:36:13;2.63;;;1.38;;
22531;SDS011;11432;46.924;7.114;2023-03-23T03:38:43;3.47;;;1.40;;
22531;SDS011;11432;46.924;7.114;2023-03-23T03:41:10;2.47;;;0.98;;
22531;SDS011;11432;46.924;7.114;2023-03-23T03:43:36;2.83;;;1.05;;
22531;SDS011;11432;46.924;7.114;2023-03-23T03:46:02;2.83;;;1.17;;
22531;SDS011;11432;46.924;7.114;2023-03-23T03:48:27;3.08;;;1.15;;
22531;SDS011;11432;46.924;7.114;2023-03-23T03:50:53;3.08;;;1.27;;
22531;SDS011;11432;46.924;7.114;2023-03-23T03:53:21;2.30;;;1.33;;
22531;SDS011;11432;46.924;7.114;2023-03-23T03:55:47;2.05;;;1.15;;
22531;SDS011;11432;46.924;7.114;2023-03-23T03:58:14;1.73;;;1.27;;
22531;SDS011;11432;46.924;7.114;2023-03-23T04:00:41;2.38;;;1.23;;
22531;SDS011;11432;46.924;7.114;2023-03-23T04:03:07;4.18;;;1.13;;
22531;SDS011;11432;46.924;7.114;2023-03-23T04:05:34;10.65;;;1.40;;
22531;SDS011;11432;46.924;7.114;2023-03-23T04:08:01;3.45;;;1.10;;
22531;SDS011;11432;46.924;7.114;2023-03-23T04:10:28;1.90;;;1.17;;
22531;SDS011;11432;46.924;7.114;2023-03-23T04:12:55;3.40;;;1.20;;
22531;SDS011;11432;46.924;7.114;2023-03-23T04:15:20;2.60;;;1.20;;
22531;SDS011;11432;46.924;7.114;2023-03-23T04:17:46;2.40;;;1.40;;
22531;SDS011;11432;46.924;7.114;2023-03-23T04:20:12;2.50;;;1.30;;
22531;SDS011;11432;46.924;7.114;2023-03-23T04:22:45;3.50;;;1.30;;
22531;SDS011;11432;46.924;7.114;2023-03-23T04:25:15;2.75;;;1.23;;
22531;SDS011;11432;46.924;7.114;2023-03-23T04:27:45;1.83;;;1.15;;
22531;SDS011;11432;46.924;7.114;2023-03-23T04:30:18;4.65;;;1.67;;
22531;SDS011;11432;46.924;7.114;2023-03-23T04:32:45;3.10;;;1.20;;
22531;SDS011;11432;46.924;7.114;2023-03-23T04:35:11;2.50;;;1.45;;
22531;SDS011;11432;46.924;7.114;2023-03-23T04:37:39;2.03;;;1.05;;
22531;SDS011;11432;46.924;7.114;2023-03-23T04:40:06;2.90;;;1.20;;
22531;SDS011;11432;46.924;7.114;2023-03-23T04:42:36;2.85;;;1.50;;
22531;SDS011;11432;46.924;7.114;2023-03-23T04:45:03;1.88;;;1.38;;
22531;SDS011;11432;46.924;7.114;2023-03-23T04:47:35;2.10;;;1.10;;
22531;SDS011;11432;46.924;7.114;2023-03-23T04:50:05;2.47;;;1.33;;
22531;SDS011;11432;46.924;7.114;2023-03-23T04:52:37;2.78;;;1.58;;
22531;SDS011;11432;46.924;7.114;2023-03-23T04:55:05;2.42;;;1.38;;
22531;SDS011;11432;46.924;7.114;2023-03-23T04:57:32;2.30;;;1.20;;
22531;SDS011;11432;46.924;7.114;2023-03-23T04:59:58;1.73;;;1.30;;
22531;SDS011;11432;46.924;7.114;2023-03-23T05:02:24;5.57;;;1.50;;
22531;SDS011;11432;46.924;7.114;2023-03-23T05:04:50;2.40;;;1.30;;
22531;SDS011;11432;46.924;7.114;2023-03-23T05:07:15;2.05;;;1.05;;
22531;SDS011;11432;46.924;7.114;2023-03-23T05:09:41;2.67;;;1.40;;
22531;SDS011;11432;46.924;7.114;2023-03-23T05:12:11;3.42;;;1.30;;
22531;SDS011;11432;46.924;7.114;2023-03-23T05:14:39;2.53;;;1.17;;
22531;SDS011;11432;46.924;7.114;2023-03-23T05:17:06;5.90;;;1.33;;
22531;SDS011;11432;46.924;7.114;2023-03-23T05:19:32;3.05;;;1.23;;
22531;SDS011;11432;46.924;7.114;2023-03-23T05:21:58;4.40;;;1.20;;
22531;SDS011;11432;46.924;7.114;2023-03-23T05:24:31;2.47;;;1.00;;
22531;SDS011;11432;46.924;7.114;2023-03-23T05:31:54;2.38;;;1.33;;
22531;SDS011;11432;46.924;7.114;2023-03-23T05:34:21;4.47;;;1.42;;
22531;SDS011;11432;46.924;7.114;2023-03-23T05:36:46;2.53;;;1.52;;
22531;SDS011;11432;46.924;7.114;2023-03-23T05:39:12;2.50;;;1.20;;
22531;SDS011;11432;46.924;7.114;2023-03-23T05:41:39;4.30;;;1.60;;
22531;SDS011;11432;46.924;7.114;2023-03-23T05:44:05;3.95;;;1.77;;
22531;SDS011;11432;46.924;7.114;2023-03-23T05:46:30;5.15;;;1.60;;
22531;SDS011;11432;46.924;7.114;2023-03-23T05:48:57;2.80;;;1.58;;
22531;SDS011;11432;46.924;7.114;2023-03-23T05:51:22;2.63;;;1.52;;
22531;SDS011;11432;46.924;7.114;2023-03-23T05:53:48;4.57;;;1.55;;
22531;SDS011;11432;46.924;7.114;2023-03-23T05:56:14;5.32;;;1.60;;
22531;SDS011;11432;46.924;7.114;2023-03-23T05:58:40;3.42;;;1.35;;
22531;SDS011;11432;46.924;7.114;2023-03-23T06:01:06;2.22;;;1.30;;
22531;SDS011;11432;46.924;7.114;2023-03-23T06:03:32;4.03;;;1.65;;
22531;SDS011;11432;46.924;7.114;2023-03-23T06:06:00;2.78;;;1.38;;
22531;SDS011;11432;46.924;7.114;2023-03-23T06:08:26;2.78;;;1.63;;
22531;SDS011;11432;46.924;7.114;2023-03-23T06:10:52;2.47;;;1.50;;
22531;SDS011;11432;46.924;7.114;2023-03-23T06:13:17;3.03;;;1.60;;
22531;SDS011;11432;46.924;7.114;2023-03-23T06:15:43;2.72;;;1.38;;
22531;SDS011;11432;46.924;7.114;2023-03-23T06:18:08;5.25;;;1.88;;
22531;SDS011;11432;46.924;7.114;2023-03-23T06:20:35;5.13;;;1.88;;
22531;SDS011;11432;46.924;7.114;2023-03-23T06:23:01;3.97;;;1.52;;
22531;SDS011;11432;46.924;7.114;2023-03-23T06:25:28;3.35;;;1.30;;
22531;SDS011;11432;46.924;7.114;2023-03-23T06:27:54;1.88;;;1.40;;
22531;SDS011;11432;46.924;7.114;2023-03-23T06:30:20;1.85;;;1.00;;
22531;SDS011;11432;46.924;7.114;2023-03-23T06:32:46;1.40;;;1.10;;
22531;SDS011;11432;46.924;7.114;2023-03-23T06:35:12;4.40;;;1.50;;
22531;SDS011;11432;46.924;7.114;2023-03-23T06:37:39;3.58;;;1.30;;
22531;SDS011;11432;46.924;7.114;2023-03-23T06:40:05;2.80;;;1.45;;
22531;SDS011;11432;46.924;7.114;2023-03-23T06:42:32;3.90;;;1.80;;
22531;SDS011;11432;46.924;7.114;2023-03-23T06:44:58;2.83;;;1.52;;
22531;SDS011;11432;46.924;7.114;2023-03-23T06:47:25;2.22;;;1.20;;
22531;SDS011;11432;46.924;7.114;2023-03-23T06:49:54;2.17;;;1.23;;
22531;SDS011;11432;46.924;7.114;2023-03-23T06:52:21;3.75;;;1.60;;
22531;SDS011;11432;46.924;7.114;2023-03-23T06:54:47;2.88;;;1.38;;
22531;SDS011;11432;46.924;7.114;2023-03-23T06:57:16;3.33;;;1.40;;
22531;SDS011;11432;46.924;7.114;2023-03-23T06:59:43;4.25;;;1.27;;
22531;SDS011;11432;46.924;7.114;2023-03-23T07:02:10;2.25;;;1.30;;
22531;SDS011;11432;46.924;7.114;2023-03-23T07:04:37;1.98;;;1.20;;
22531;SDS011;11432;46.924;7.114;2023-03-23T07:07:05;2.08;;;1.40;;
22531;SDS011;11432;46.924;7.114;2023-03-23T07:09:32;4.97;;;1.20;;
22531;SDS011;11432;46.924;7.114;2023-03-23T07:11:58;2.72;;;1.48;;
22531;SDS011;11432;46.924;7.114;2023-03-23T07:14:24;3.22;;;1.67;;
22531;SDS011;11432;46.924;7.114;2023-03-23T07:16:49;6.88;;;1.80;;
22531;SDS011;11432;46.924;7.114;2023-03-23T07:19:15;3.42;;;1.73;;
22531;SDS011;11432;46.924;7.114;2023-03-23T07:21:41;4.93;;;1.77;;
22531;SDS011;11432;46.924;7.114;2023-03-23T07:24:10;2.55;;;1.60;;
22531;SDS011;11432;46.924;7.114;2023-03-23T07:26:38;4.07;;;1.55;;
22531;SDS011;11432;46.924;7.114;2023-03-23T07:29:08;3.22;;;1.73;;
22531;SDS011;11432;46.924;7.114;2023-03-23T07:31:34;4.00;;;1.45;;
22531;SDS011;11432;46.924;7.114;2023-03-23T07:34:00;3.05;;;1.50;;
22531;SDS011;11432;46.924;7.114;2023-03-23T07:36:27;2.83;;;1.50;;
22531;SDS011;11432;46.924;7.114;2023-03-23T07:38:53;2.70;;;1.30;;
22531;SDS011;11432;46.924;7.114;2023-03-23T07:41:19;5.07;;;1.45;;
22531;SDS011;11432;46.924;7.114;2023-03-23T07:43:45;2.67;;;1.30;;
22531;SDS011;11432;46.924;7.114;2023-03-23T07:46:11;2.25;;;1.20;;
22531;SDS011;11432;46.924;7.114;2023-03-23T07:48:37;3.00;;;1.08;;
22531;SDS011;11432;46.924;7.114;2023-03-23T07:51:03;2.78;;;1.20;;
22531;SDS011;11432;46.924;7.114;2023-03-23T07:53:30;2.05;;;1.15;;
22531;SDS011;11432;46.924;7.114;2023-03-23T07:55:56;2.20;;;1.10;;
22531;SDS011;11432;46.924;7.114;2023-03-23T07:58:22;1.95;;;1.20;;
22531;SDS011;11432;46.924;7.114;2023-03-23T08:00:48;4.13;;;1.10;;
22531;SDS011;11432;46.924;7.114;2023-03-23T08:03:14;2.08;;;0.90;;
22531;SDS011;11432;46.924;7.114;2023-03-23T08:05:40;4.65;;;1.10;;
22531;SDS011;11432;46.924;7.114;2023-03-23T08:08:07;2.50;;;1.20;;
22531;SDS011;11432;46.924;7.114;2023-03-23T08:10:34;3.33;;;1.27;;
22531;SDS011;11432;46.924;7.114;2023-03-23T08:13:01;2.10;;;1.15;;
22531;SDS011;11432;46.924;7.114;2023-03-23T08:15:27;3.00;;;1.08;;
22531;SDS011;11432;46.924;7.114;2023-03-23T08:17:53;3.17;;;1.17;;
22531;SDS011;11432;46.924;7.114;2023-03-23T08:20:19;2.35;;;1.48;;
22531;SDS011;11432;46.924;7.114;2023-03-23T08:22:51;2.10;;;0.95;;
22531;SDS011;11432;46.924;7.114;2023-03-23T08:25:20;3.25;;;1.25;;
22531;SDS011;11432;46.924;7.114;2023-03-23T08:27:46;3.13;;;1.10;;
22531;SDS011;11432;46.924;7.114;2023-03-23T08:30:13;4.72;;;0.93;;
22531;SDS011;11432;46.924;7.114;2023-03-23T08:32:41;2.60;;;1.10;;
22531;SDS011;11432;46.924;7.114;2023-03-23T08:35:08;2.03;;;1.30;;
22531;SDS011;11432;46.924;7.114;2023-03-23T08:37:36;5.38;;;1.65;;
22531;SDS011;11432;46.924;7.114;2023-03-23T08:40:02;3.50;;;1.42;;
22531;SDS011;11432;46.924;7.114;2023-03-23T08:42:33;3.58;;;1.08;;
22531;SDS011;11432;46.924;7.114;2023-03-23T08:44:58;2.53;;;1.05;;
22531;SDS011;11432;46.924;7.114;2023-03-23T08:47:24;3.85;;;1.20;;
22531;SDS011;11432;46.924;7.114;2023-03-23T08:49:50;2.47;;;1.15;;
22531;SDS011;11432;46.924;7.114;2023-03-23T08:52:18;5.97;;;1.20;;
22531;SDS011;11432;46.924;7.114;2023-03-23T08:54:43;1.75;;;0.85;;
22531;SDS011;11432;46.924;7.114;2023-03-23T08:57:12;2.20;;;1.00;;
22531;SDS011;11432;46.924;7.114;2023-03-23T08:59:39;2.67;;;1.15;;
22531;SDS011;11432;46.924;7.114;2023-03-23T09:02:06;2.92;;;1.10;;
22531;SDS011;11432;46.924;7.114;2023-03-23T09:04:33;1.48;;;0.90;;
22531;SDS011;11432;46.924;7.114;2023-03-23T09:06:59;1.33;;;0.80;;
22531;SDS011;11432;46.924;7.114;2023-03-23T09:09:25;2.25;;;0.93;;
22531;SDS011;11432;46.924;7.114;2023-03-23T09:11:52;4.28;;;1.00;;
22531;SDS011;11432;46.924;7.114;2023-03-23T09:14:18;2.50;;;1.10;;
22531;SDS011;11432;46.924;7.114;2023-03-23T09:16:43;1.65;;;1.00;;
22531;SDS011;11432;46.924;7.114;2023-03-23T09:19:10;3.72;;;1.05;;
22531;SDS011;11432;46.924;7.114;2023-03-23T09:21:37;2.97;;;1.20;;
22531;SDS011;11432;46.924;7.114;2023-03-23T09:24:03;1.83;;;1.23;;
22531;SDS011;11432;46.924;7.114;2023-03-23T09:26:30;1.60;;;1.10;;
22531;SDS011;11432;46.924;7.114;2023-03-23T09:28:56;3.58;;;1.23;;
22531;SDS011;11432;46.924;7.114;2023-03-23T09:31:23;2.15;;;1.08;;
22531;SDS011;11432;46.924;7.114;2023-03-23T09:33:52;4.00;;;1.40;;
22531;SDS011;11432;46.924;7.114;2023-03-23T09:36:20;2.95;;;1.17;;
22531;SDS011;11432;46.924;7.114;2023-03-23T09:38:46;1.75;;;1.08;;
22531;SDS011;11432;46.924;7.114;2023-03-23T09:42:03;2.17;;;1.13;;
22531;SDS011;11432;46.924;7.114;2023-03-23T09:47:37;2.38;;;1.00;;
22531;SDS011;11432;46.924;7.114;2023-03-23T09:50:11;2.53;;;1.23;;
22531;SDS011;11432;46.924;7.114;2023-03-23T09:52:46;3.25;;;1.13;;
22531;SDS011;11432;46.924;7.114;2023-03-23T09:59:07;1.92;;;1.10;;
22531;SDS011;11432;46.924;7.114;2023-03-23T10:01:57;1.92;;;1.20;;
22531;SDS011;11432;46.924;7.114;2023-03-23T10:04:41;2.90;;;1.00;;
22531;SDS011;11432;46.924;7.114;2023-03-23T10:09:41;4.53;;;1.20;;
22531;SDS011;11432;46.924;7.114;2023-03-23T10:14:44;2.75;;;1.40;;
22531;SDS011;11432;46.924;7.114;2023-03-23T10:17:27;3.95;;;1.00;;
22531;SDS011;11432;46.924;7.114;2023-03-23T10:22:41;2.58;;;1.25;;
22531;SDS011;11432;46.924;7.114;2023-03-23T10:30:19;2.40;;;1.58;;
22531;SDS011;11432;46.924;7.114;2023-03-23T10:33:01;2.88;;;1.65;;
22531;SDS011;11432;46.924;7.114;2023-03-23T10:35:43;2.40;;;1.20;;
22531;SDS011;11432;46.924;7.114;2023-03-23T10:38:25;3.63;;;1.30;;
22531;SDS011;11432;46.924;7.114;2023-03-23T10:41:09;3.33;;;1.40;;
22531;SDS011;11432;46.924;7.114;2023-03-23T10:43:40;2.22;;;1.27;;
22531;SDS011;11432;46.924;7.114;2023-03-23T10:46:23;4.05;;;1.23;;
22531;SDS011;11432;46.924;7.114;2023-03-23T10:48:54;2.22;;;1.10;;
22531;SDS011;11432;46.924;7.114;2023-03-23T10:51:25;1.63;;;0.90;;
22531;SDS011;11432;46.924;7.114;2023-03-23T10:53:58;3.53;;;1.00;;
22531;SDS011;11432;46.924;7.114;2023-03-23T10:56:28;1.92;;;1.10;;
22531;SDS011;11432;46.924;7.114;2023-03-23T10:58:59;1.83;;;1.15;;
22531;SDS011;11432;46.924;7.114;2023-03-23T11:01:36;2.25;;;0.95;;
22531;SDS011;11432;46.924;7.114;2023-03-23T11:04:02;3.05;;;1.00;;
22531;SDS011;11432;46.924;7.114;2023-03-23T11:06:29;3.63;;;1.02;;
22531;SDS011;11432;46.924;7.114;2023-03-23T11:09:08;2.75;;;1.13;;
22531;SDS011;11432;46.924;7.114;2023-03-23T11:11:37;3.25;;;1.17;;
22531;SDS011;11432;46.924;7.114;2023-03-23T11:14:41;2.53;;;1.10;;
22531;SDS011;11432;46.924;7.114;2023-03-23T11:17:04;2.45;;;1.02;;
22531;SDS011;11432;46.924;7.114;2023-03-23T11:19:44;4.25;;;0.90;;
22531;SDS011;11432;46.924;7.114;2023-03-23T11:22:16;3.50;;;1.13;;
22531;SDS011;11432;46.924;7.114;2023-03-23T11:24:51;2.58;;;0.82;;
22531;SDS011;11432;46.924;7.114;2023-03-23T11:27:20;2.35;;;1.15;;
22531;SDS011;11432;46.924;7.114;2023-03-23T11:29:51;2.42;;;0.80;;
22531;SDS011;11432;46.924;7.114;2023-03-23T11:32:19;1.20;;;0.77;;
22531;SDS011;11432;46.924;7.114;2023-03-23T11:34:53;2.05;;;1.00;;
22531;SDS011;11432;46.924;7.114;2023-03-23T11:37:28;1.45;;;0.85;;
22531;SDS011;11432;46.924;7.114;2023-03-23T11:50:32;2.30;;;1.10;;
22531;SDS011;11432;46.924;7.114;2023-03-23T11:58:14;2.35;;;0.65;;
22531;SDS011;11432;46.924;7.114;2023-03-23T12:00:49;2.28;;;0.75;;
22531;SDS011;11432;46.924;7.114;2023-03-23T12:03:44;1.38;;;0.80;;
22531;SDS011;11432;46.924;7.114;2023-03-23T12:06:16;1.35;;;0.80;;
22531;SDS011;11432;46.924;7.114;2023-03-23T12:19:43;2.88;;;0.93;;
22531;SDS011;11432;46.924;7.114;2023-03-23T12:27:55;3.33;;;0.80;;
22531;SDS011;11432;46.924;7.114;2023-03-23T12:30:35;3.15;;;1.15;;
22531;SDS011;11432;46.924;7.114;2023-03-23T12:44:07;4.70;;;1.02;;
22531;SDS011;11432;46.924;7.114;2023-03-23T12:46:51;1.27;;;0.80;;
22531;SDS011;11432;46.924;7.114;2023-03-23T12:49:34;1.25;;;0.80;;
22531;SDS011;11432;46.924;7.114;2023-03-23T12:54:45;2.00;;;0.98;;
22531;SDS011;11432;46.924;7.114;2023-03-23T13:05:46;2.33;;;1.17;;
22531;SDS011;11432;46.924;7.114;2023-03-23T13:08:30;3.83;;;1.30;;
22531;SDS011;11432;46.924;7.114;2023-03-23T13:11:01;2.50;;;1.13;;
22531;SDS011;11432;46.924;7.114;2023-03-23T13:21:30;4.57;;;1.20;;
22531;SDS011;11432;46.924;7.114;2023-03-23T13:26:27;2.42;;;1.30;;
22531;SDS011;11432;46.924;7.114;2023-03-23T13:28:56;1.83;;;1.08;;
22531;SDS011;11432;46.924;7.114;2023-03-23T13:31:30;3.13;;;1.20;;
22531;SDS011;11432;46.924;7.114;2023-03-23T13:34:01;1.67;;;1.10;;
22531;SDS011;11432;46.924;7.114;2023-03-23T13:37:01;1.60;;;0.88;;
22531;SDS011;11432;46.924;7.114;2023-03-23T13:39:32;3.03;;;1.10;;
22531;SDS011;11432;46.924;7.114;2023-03-23T13:44:43;2.15;;;0.70;;
22531;SDS011;11432;46.924;7.114;2023-03-23T13:52:36;1.55;;;0.88;;
22531;SDS011;11432;46.924;7.114;2023-03-23T13:55:08;1.63;;;0.80;;
22531;SDS011;11432;46.924;7.114;2023-03-23T14:13:17;1.10;;;0.55;;
22531;SDS011;11432;46.924;7.114;2023-03-23T14:16:13;2.10;;;1.02;;
22531;SDS011;11432;46.924;7.114;2023-03-23T14:18:58;2.95;;;0.90;;
22531;SDS011;11432;46.924;7.114;2023-03-23T14:24:02;1.40;;;0.73;;
22531;SDS011;11432;46.924;7.114;2023-03-23T14:26:33;2.25;;;0.95;;
22531;SDS011;11432;46.924;7.114;2023-03-23T14:29:00;3.28;;;0.90;;
22531;SDS011;11432;46.924;7.114;2023-03-23T14:31:26;1.60;;;0.73;;
22531;SDS011;11432;46.924;7.114;2023-03-23T14:33:53;3.30;;;1.08;;
22531;SDS011;11432;46.924;7.114;2023-03-23T14:36:24;1.45;;;0.90;;
22531;SDS011;11432;46.924;7.114;2023-03-23T14:41:44;2.25;;;1.08;;
22531;SDS011;11432;46.924;7.114;2023-03-23T14:44:14;1.92;;;0.93;;
22531;SDS011;11432;46.924;7.114;2023-03-23T14:46:46;2.17;;;1.10;;
22531;SDS011;11432;46.924;7.114;2023-03-23T14:49:15;3.30;;;1.00;;
22531;SDS011;11432;46.924;7.114;2023-03-23T14:51:51;0.90;;;0.55;;
22531;SDS011;11432;46.924;7.114;2023-03-23T14:54:25;3.50;;;0.63;;
22531;SDS011;11432;46.924;7.114;2023-03-23T14:56:52;1.85;;;0.70;;
22531;SDS011;11432;46.924;7.114;2023-03-23T14:59:19;3.40;;;1.00;;
22531;SDS011;11432;46.924;7.114;2023-03-23T15:01:46;2.80;;;1.17;;
22531;SDS011;11432;46.924;7.114;2023-03-23T15:06:42;2.22;;;1.30;;
22531;SDS011;11432;46.924;7.114;2023-03-23T15:09:14;3.75;;;1.13;;
22531;SDS011;11432;46.924;7.114;2023-03-23T15:11:43;1.70;;;1.00;;
22531;SDS011;11432;46.924;7.114;2023-03-23T15:14:26;4.13;;;0.88;;
22531;SDS011;11432;46.924;7.114;2023-03-23T15:16:55;2.05;;;1.10;;
22531;SDS011;11432;46.924;7.114;2023-03-23T15:19:24;2.33;;;1.10;;
22531;SDS011;11432;46.924;7.114;2023-03-23T15:21:57;2.17;;;1.00;;
22531;SDS011;11432;46.924;7.114;2023-03-23T15:24:50;2.10;;;0.82;;
22531;SDS011;11432;46.924;7.114;2023-03-23T15:27:32;3.10;;;1.17;;
22531;SDS011;11432;46.924;7.114;2023-03-23T15:33:11;2.08;;;0.85;;
22531;SDS011;11432;46.924;7.114;2023-03-23T15:35:38;3.25;;;1.00;;
22531;SDS011;11432;46.924;7.114;2023-03-23T15:40:49;3.33;;;0.90;;
22531;SDS011;11432;46.924;7.114;2023-03-23T15:46:46;2.40;;;1.30;;
22531;SDS011;11432;46.924;7.114;2023-03-23T15:51:35;3.03;;;1.30;;
22531;SDS011;11432;46.924;7.114;2023-03-23T15:54:01;2.67;;;1.40;;
22531;SDS011;11432;46.924;7.114;2023-03-23T15:56:27;5.68;;;1.67;;
22531;SDS011;11432;46.924;7.114;2023-03-23T15:58:54;2.53;;;1.27;;
22531;SDS011;11432;46.924;7.114;2023-03-23T16:01:24;3.00;;;1.45;;
22531;SDS011;11432;46.924;7.114;2023-03-23T16:06:24;3.83;;;1.25;;
22531;SDS011;11432;46.924;7.114;2023-03-23T16:08:54;2.47;;;1.40;;
22531;SDS011;11432;46.924;7.114;2023-03-23T16:11:21;2.63;;;1.10;;
22531;SDS011;11432;46.924;7.114;2023-03-23T16:13:48;4.85;;;1.50;;
22531;SDS011;11432;46.924;7.114;2023-03-23T16:16:16;2.15;;;1.33;;
22531;SDS011;11432;46.924;7.114;2023-03-23T16:18:43;3.58;;;1.45;;
22531;SDS011;11432;46.924;7.114;2023-03-23T16:21:09;2.67;;;1.80;;
22531;SDS011;11432;46.924;7.114;2023-03-23T16:23:35;4.05;;;1.70;;
22531;SDS011;11432;46.924;7.114;2023-03-23T16:26:01;2.17;;;1.42;;
22531;SDS011;11432;46.924;7.114;2023-03-23T16:28:26;3.13;;;1.20;;
22531;SDS011;11432;46.924;7.114;2023-03-23T16:30:52;2.15;;;1.42;;
22531;SDS011;11432;46.924;7.114;2023-03-23T16:33:17;2.13;;;1.15;;
22531;SDS011;11432;46.924;7.114;2023-03-23T16:35:43;2.15;;;1.20;;
22531;SDS011;11432;46.924;7.114;2023-03-23T16:38:10;3.15;;;1.35;;
22531;SDS011;11432;46.924;7.114;2023-03-23T16:40:41;3.00;;;1.40;;
22531;SDS011;11432;46.924;7.114;2023-03-23T16:43:07;2.95;;;1.58;;
22531;SDS011;11432;46.924;7.114;2023-03-23T16:45:34;2.88;;;1.33;;
22531;SDS011;11432;46.924;7.114;2023-03-23T16:48:00;3.40;;;1.58;;
22531;SDS011;11432;46.924;7.114;2023-03-23T16:50:27;2.78;;;1.73;;
22531;SDS011;11432;46.924;7.114;2023-03-23T16:52:53;4.60;;;1.63;;
22531;SDS011;11432;46.924;7.114;2023-03-23T16:55:20;2.95;;;1.27;;
22531;SDS011;11432;46.924;7.114;2023-03-23T16:57:45;4.85;;;2.13;;
22531;SDS011;11432;46.924;7.114;2023-03-23T17:00:12;5.07;;;1.90;;
22531;SDS011;11432;46.924;7.114;2023-03-23T17:02:41;4.63;;;1.90;;
22531;SDS011;11432;46.924;7.114;2023-03-23T17:05:08;3.47;;;1.48;;
22531;SDS011;11432;46.924;7.114;2023-03-23T17:07:38;3.83;;;2.10;;
22531;SDS011;11432;46.924;7.114;2023-03-23T17:10:04;5.28;;;3.33;;
22531;SDS011;11432;46.924;7.114;2023-03-23T17:12:31;5.25;;;2.67;;
22531;SDS011;11432;46.924;7.114;2023-03-23T17:14:57;6.32;;;2.22;;
22531;SDS011;11432;46.924;7.114;2023-03-23T17:17:23;5.10;;;1.95;;
22531;SDS011;11432;46.924;7.114;2023-03-23T17:19:49;6.78;;;3.15;;
22531;SDS011;11432;46.924;7.114;2023-03-23T17:22:15;18.23;;;8.32;;
22531;SDS011;11432;46.924;7.114;2023-03-23T17:24:42;13.48;;;7.07;;
22531;SDS011;11432;46.924;7.114;2023-03-23T17:27:08;11.77;;;5.45;;
22531;SDS011;11432;46.924;7.114;2023-03-23T17:29:34;6.00;;;3.42;;
22531;SDS011;11432;46.924;7.114;2023-03-23T17:32:00;6.63;;;3.13;;
22531;SDS011;11432;46.924;7.114;2023-03-23T17:34:25;4.57;;;3.00;;
22531;SDS011;11432;46.924;7.114;2023-03-23T17:36:51;7.53;;;3.67;;
22531;SDS011;11432;46.924;7.114;2023-03-23T17:39:16;3.95;;;2.25;;
22531;SDS011;11432;46.924;7.114;2023-03-23T17:41:42;3.97;;;1.80;;
22531;SDS011;11432;46.924;7.114;2023-03-23T17:44:08;3.78;;;1.88;;
22531;SDS011;11432;46.924;7.114;2023-03-23T17:46:33;3.10;;;2.20;;
22531;SDS011;11432;46.924;7.114;2023-03-23T17:48:59;4.50;;;2.00;;
22531;SDS011;11432;46.924;7.114;2023-03-23T17:51:24;5.07;;;2.03;;